Hathaway, Montana
Current Conditions -  °F | °C
As of 2:53 AM on Sunday 26 Oct 2014 (Local Time) from KMLS Reporting Station
Clear Clear  
Wind Chill: 51°   Ceiling: Unl
Heat Index: 51°   Visibility: 10mi
Dew Point: 37°   Wind: 7mph
Humidity: 59%   Direction: 140°SE
Pressure: 29.56"   Gusts: NA
Location:  46.28°N, 106.2°W
Report Text: KMLS 260853Z AUTO 14006KT 10SM CLR 11/03 A2956 RMK AO2 SLP000 T01060028 56015
Loading
Personal Weather Stations






























Interactive Weather Map
Tropical Storm Tracking
New forecast layout! Learn more

10-Day Weather Forecast

Advertisements
Track Severe Weather on mobile